createdAt,value
2018-05-04T00:00:48.796Z,99422.50
2018-05-04T00:03:16.370Z,99419.95
2018-05-04T00:05:43.938Z,99415.41
2018-05-04T00:08:11.628Z,99414.80
2018-05-04T00:10:39.288Z,99417.73
2018-05-04T00:13:06.835Z,99418.34
2018-05-04T00:15:34.396Z,99424.59
2018-05-04T00:18:01.961Z,99424.80
2018-05-04T00:20:29.558Z,99424.07
2018-05-04T00:22:57.125Z,99423.05
2018-05-04T00:25:24.769Z,99426.02
2018-05-04T00:27:52.373Z,99422.41
2018-05-04T00:30:19.932Z,99429.63
2018-05-04T00:32:47.501Z,99426.03
2018-05-04T00:35:15.056Z,99430.00
2018-05-04T00:37:42.629Z,99430.01
2018-05-04T00:40:10.209Z,99426.05
2018-05-04T00:42:37.880Z,99424.91
2018-05-04T00:45:05.433Z,99427.45
2018-05-04T00:47:32.997Z,99424.66
2018-05-04T00:50:00.564Z,99427.58
2018-05-04T00:52:28.119Z,99424.25
2018-05-04T00:54:55.689Z,99424.86
2018-05-04T00:57:23.313Z,99423.97
2018-05-04T00:59:50.885Z,99420.48
2018-05-04T01:02:18.490Z,99428.51
2018-05-04T01:04:46.101Z,99427.16
2018-05-04T01:07:13.717Z,99421.33
2018-05-04T01:09:41.345Z,99425.27
2018-05-04T01:12:08.991Z,99421.98
2018-05-04T01:14:36.620Z,99426.05
2018-05-04T01:17:04.204Z,99424.70
2018-05-04T01:19:31.765Z,99423.67
2018-05-04T01:21:59.376Z,99435.13
2018-05-04T01:24:26.941Z,99431.50
2018-05-04T01:26:54.497Z,99438.83
2018-05-04T01:29:22.129Z,99436.03
2018-05-04T01:31:49.759Z,99435.97
2018-05-04T01:34:17.328Z,99439.84
2018-05-04T01:36:44.888Z,99435.09
2018-05-04T01:39:12.541Z,99432.08
2018-05-04T01:41:40.168Z,99434.93
2018-05-04T01:44:07.785Z,99430.45
2018-05-04T01:46:35.408Z,99429.52
2018-05-04T01:49:02.968Z,99430.34
2018-05-04T01:51:30.541Z,99431.60
2018-05-04T01:53:58.102Z,99429.52
2018-05-04T01:56:25.725Z,99429.52
2018-05-04T01:58:53.345Z,99432.13
2018-05-04T02:01:20.906Z,99431.50
2018-05-04T02:03:48.479Z,99430.60
2018-05-04T02:06:16.044Z,99432.06
2018-05-04T02:08:43.675Z,99434.19
2018-05-04T02:11:11.239Z,99436.27
2018-05-04T02:13:38.857Z,99443.77
2018-05-04T02:16:06.416Z,99433.14
2018-05-04T02:18:33.977Z,99430.13
2018-05-04T02:21:01.549Z,99437.73
2018-05-04T02:23:29.169Z,99429.85
2018-05-04T02:25:56.763Z,99422.98
2018-05-04T02:28:24.333Z,99431.83
2018-05-04T02:30:51.984Z,99433.22
2018-05-04T02:33:19.606Z,99438.49
2018-05-04T02:35:47.225Z,99436.09
2018-05-04T02:38:14.801Z,99432.56
2018-05-04T02:40:42.360Z,99432.14
2018-05-04T02:43:09.977Z,99437.34
2018-05-04T02:45:37.533Z,99440.08
2018-05-04T02:48:05.146Z,99443.17
2018-05-04T02:50:32.766Z,99433.29
2018-05-04T02:53:00.389Z,99441.92
2018-05-04T02:55:28.070Z,99428.81
2018-05-04T02:57:55.613Z,99438.18
2018-05-04T03:00:23.181Z,99444.87
2018-05-04T03:02:50.768Z,99443.80
2018-05-04T03:05:18.392Z,99442.38
2018-05-04T03:07:45.949Z,99450.69
2018-05-04T03:10:13.508Z,99452.25
2018-05-04T03:12:41.146Z,99454.44
2018-05-04T03:15:08.706Z,99460.27
2018-05-04T03:17:36.276Z,99454.72
2018-05-04T03:20:03.886Z,99457.42
2018-05-04T03:22:31.578Z,99454.17
2018-05-04T03:24:59.148Z,99457.98
2018-05-04T03:27:26.769Z,99456.27
2018-05-04T03:29:54.340Z,99454.21
2018-05-04T03:32:21.904Z,99458.83
2018-05-04T03:34:49.529Z,99464.44
2018-05-04T03:37:17.088Z,99463.58
2018-05-04T03:39:45.634Z,99473.94
2018-05-04T03:42:13.193Z,99468.58
2018-05-04T03:44:40.810Z,99470.99
2018-05-04T03:47:08.409Z,99487.19
2018-05-04T03:49:35.972Z,99486.08
2018-05-04T03:52:03.543Z,99484.55
2018-05-04T03:54:31.132Z,99480.87
2018-05-04T03:57:10.641Z,99483.45
2018-05-04T03:59:49.984Z,99487.72
2018-05-04T04:02:29.548Z,99481.06
2018-05-04T04:04:57.109Z,99483.94
2018-05-04T04:07:24.738Z,99485.09
2018-05-04T04:09:52.308Z,99478.75
2018-05-04T04:12:19.872Z,99482.48
2018-05-04T04:14:47.460Z,99485.72
2018-05-04T04:17:15.021Z,99479.84
2018-05-04T04:19:42.636Z,99481.55
2018-05-04T04:22:10.221Z,99481.20
2018-05-04T04:24:37.780Z,99479.56
2018-05-04T04:27:05.348Z,99478.01
2018-05-04T04:29:32.972Z,99489.30
2018-05-04T04:32:00.616Z,99481.02
2018-05-04T04:34:28.176Z,99472.84
2018-05-04T04:36:55.741Z,99479.23
2018-05-04T04:39:23.312Z,99482.73
2018-05-04T04:41:50.937Z,99487.11
2018-05-04T04:44:18.517Z,99487.02
2018-05-04T04:46:46.133Z,99486.48
2018-05-04T04:49:13.764Z,99476.91
2018-05-04T04:51:43.627Z,99482.34
2018-05-04T04:54:11.254Z,99478.53
2018-05-04T04:56:44.967Z,99480.69
2018-05-04T04:59:12.556Z,99481.41
2018-05-04T05:01:40.232Z,99479.95
2018-05-04T05:04:07.789Z,99488.13
2018-05-04T05:06:35.348Z,99496.19
2018-05-04T05:09:02.977Z,99496.63
2018-05-04T05:11:30.604Z,99496.72
2018-05-04T05:13:58.224Z,99493.11
2018-05-04T05:16:25.856Z,99491.74
2018-05-04T05:18:53.422Z,99489.66
2018-05-04T05:21:20.996Z,99492.96
2018-05-04T05:23:48.624Z,99489.13
2018-05-04T05:26:16.217Z,99496.48
2018-05-04T05:28:43.833Z,99499.73
2018-05-04T05:31:11.445Z,99500.00
2018-05-04T05:33:39.005Z,99493.52
2018-05-04T05:36:06.568Z,99492.68
2018-05-04T05:38:34.161Z,99494.41
2018-05-04T05:41:01.724Z,99502.00
2018-05-04T05:43:29.291Z,99509.42
2018-05-04T05:45:56.881Z,99514.38
2018-05-04T05:48:24.532Z,99521.55
2018-05-04T05:50:52.157Z,99520.72
2018-05-04T05:53:19.786Z,99520.11
2018-05-04T05:55:47.413Z,99518.09
2018-05-04T05:58:14.968Z,99517.22
2018-05-04T06:00:42.547Z,99522.03
2018-05-04T06:03:10.178Z,99526.08
2018-05-04T06:05:37.795Z,99526.90
2018-05-04T06:08:05.413Z,99530.27
2018-05-04T06:10:33.010Z,99524.38
2018-05-04T06:13:00.600Z,99517.19
2018-05-04T06:15:28.217Z,99519.70
2018-05-04T06:17:55.792Z,99519.38
2018-05-04T06:20:23.444Z,99521.92
2018-05-04T06:22:51.056Z,99524.23
2018-05-04T06:25:18.616Z,99525.33
2018-05-04T06:27:46.176Z,99525.89
2018-05-04T06:30:13.743Z,99522.58
2018-05-04T06:32:41.296Z,99525.50
2018-05-04T06:35:08.928Z,99526.59
2018-05-04T06:37:36.545Z,99516.53
2018-05-04T06:40:04.274Z,99512.52
2018-05-04T06:42:31.830Z,99518.46
2018-05-04T06:44:59.463Z,99522.07
2018-05-04T06:47:27.089Z,99520.32
2018-05-04T06:49:54.656Z,99514.36
2018-05-04T06:52:22.224Z,99519.11
2018-05-04T06:54:49.800Z,99516.47
2018-05-04T06:57:17.496Z,99518.98
2018-05-04T06:59:45.048Z,99523.30
2018-05-04T07:02:12.613Z,99518.14
2018-05-04T07:04:40.185Z,99520.89
2018-05-04T07:07:07.744Z,99511.14
2018-05-04T07:09:35.312Z,99516.95
2018-05-04T07:12:02.937Z,99511.83
2018-05-04T07:14:30.553Z,99511.58
2018-05-04T07:16:58.128Z,99512.84
2018-05-04T07:19:25.686Z,99513.69
2018-05-04T07:21:53.266Z,99511.94
2018-05-04T07:24:20.828Z,99516.16
2018-05-04T07:26:48.531Z,99516.84
2018-05-04T07:29:16.084Z,99513.36
2018-05-04T07:31:43.700Z,99512.42
2018-05-04T07:34:11.323Z,99513.47
2018-05-04T07:36:38.967Z,99518.33
2018-05-04T07:39:06.533Z,99519.67
2018-05-04T07:41:34.084Z,99510.33
2018-05-04T07:44:01.676Z,99515.98
2018-05-04T07:46:29.297Z,99515.52
2018-05-04T07:48:56.900Z,99517.86
2018-05-04T07:51:24.472Z,99517.23
2018-05-04T07:53:55.027Z,99509.15
2018-05-04T07:56:34.501Z,99511.26
2018-05-04T07:59:02.063Z,99503.44
2018-05-04T08:01:29.639Z,99507.95
2018-05-04T08:03:57.196Z,99508.31
2018-05-04T08:06:24.847Z,99504.73
2018-05-04T08:08:52.484Z,99503.54
2018-05-04T08:11:20.052Z,99509.30
2018-05-04T08:13:47.677Z,99505.91
2018-05-04T08:16:15.217Z,99514.17
2018-05-04T08:18:42.878Z,99513.41
2018-05-04T08:21:10.624Z,99509.02
2018-05-04T08:23:38.289Z,99506.37
2018-05-04T08:26:05.844Z,99514.52
2018-05-04T08:28:33.497Z,99510.68
2018-05-04T08:31:01.064Z,99509.55
2018-05-04T08:33:28.678Z,99507.59
2018-05-04T08:35:56.296Z,99505.23
2018-05-04T08:38:23.949Z,99502.45
2018-05-04T08:40:51.568Z,99504.38
2018-05-04T08:43:19.129Z,99507.29
2018-05-04T08:45:46.676Z,99502.35
2018-05-04T08:48:14.255Z,99499.23
2018-05-04T08:50:41.884Z,99499.19
2018-05-04T08:53:09.505Z,99500.31
2018-05-04T08:55:37.068Z,99496.33
2018-05-04T08:58:04.759Z,99497.87
2018-05-04T09:00:32.393Z,99496.73
2018-05-04T09:03:00.010Z,99496.73
2018-05-04T09:05:27.857Z,99493.80
2018-05-04T09:07:55.255Z,99495.34
2018-05-04T09:10:22.933Z,99490.42
2018-05-04T09:12:50.627Z,99489.55
2018-05-04T09:15:18.146Z,99492.48
2018-05-04T09:17:45.773Z,99482.47
2018-05-04T09:20:13.329Z,99486.33
2018-05-04T09:22:40.946Z,99487.56
2018-05-04T09:25:08.501Z,99488.94
2018-05-04T09:27:36.117Z,99494.88
2018-05-04T09:30:03.679Z,99494.84
2018-05-04T09:32:31.308Z,99488.23
2018-05-04T09:34:58.830Z,99484.63
2018-05-04T09:37:26.426Z,99489.47
2018-05-04T09:39:54.102Z,99487.98
2018-05-04T09:42:21.664Z,99486.56
2018-05-04T09:44:49.281Z,99487.83
2018-05-04T09:47:16.845Z,99493.03
2018-05-04T09:49:44.401Z,99488.33
2018-05-04T09:52:12.016Z,99479.25
2018-05-04T09:54:39.569Z,99470.73
2018-05-04T09:57:07.139Z,99472.44
2018-05-04T09:59:34.779Z,99473.28
2018-05-04T10:02:02.351Z,99467.56
2018-05-04T10:04:29.927Z,99470.60
2018-05-04T10:06:57.561Z,99459.91
2018-05-04T10:09:25.174Z,99464.81
2018-05-04T10:11:52.788Z,99459.53
2018-05-04T10:14:20.386Z,99458.34
2018-05-04T10:16:47.952Z,99455.59
2018-05-04T10:19:15.514Z,99456.12
2018-05-04T10:21:43.138Z,99460.25
2018-05-04T10:24:10.701Z,99458.54
2018-05-04T10:26:38.325Z,99454.90
2018-05-04T10:29:05.885Z,99455.50
2018-05-04T10:31:33.520Z,99458.40
2018-05-04T10:34:01.085Z,99454.41
2018-05-04T10:36:28.644Z,99453.53
2018-05-04T10:38:56.414Z,99451.70
2018-05-04T10:41:23.807Z,99443.76
2018-05-04T10:43:51.428Z,99451.66
2018-05-04T10:46:18.971Z,99446.56
2018-05-04T10:48:46.584Z,99450.21
2018-05-04T10:51:14.157Z,99450.73
2018-05-04T10:53:41.738Z,99450.28
2018-05-04T10:56:09.328Z,99446.34
2018-05-04T10:58:36.913Z,99446.87
2018-05-04T11:01:04.595Z,99447.28
2018-05-04T11:03:32.163Z,99448.47
2018-05-04T11:05:59.726Z,99453.78
2018-05-04T11:08:27.305Z,99450.86
2018-05-04T11:10:54.929Z,99457.16
2018-05-04T11:13:22.502Z,99451.42
2018-05-04T11:15:50.064Z,99448.07
2018-05-04T11:18:17.684Z,99445.89
2018-05-04T11:20:45.255Z,99444.22
2018-05-04T11:23:12.822Z,99447.15
2018-05-04T11:25:40.422Z,99442.66
2018-05-04T11:28:08.041Z,99445.56
2018-05-04T11:30:35.673Z,99438.19
2018-05-04T11:33:03.272Z,99440.79
2018-05-04T11:35:30.925Z,99441.59
2018-05-04T11:37:58.481Z,99430.54
2018-05-04T11:40:26.056Z,99432.45
2018-05-04T11:42:53.649Z,99429.83
2018-05-04T11:45:21.208Z,99433.18
2018-05-04T11:47:48.844Z,99428.70
2018-05-04T11:50:16.404Z,99434.83
2018-05-04T11:52:44.031Z,99430.07
2018-05-04T11:55:11.713Z,99435.83
2018-05-04T11:57:39.253Z,99438.90
2018-05-04T12:00:06.798Z,99423.20
2018-05-04T12:02:34.395Z,99426.31
2018-05-04T12:05:01.965Z,99429.72
2018-05-04T12:07:29.533Z,99423.83
2018-05-04T12:09:57.225Z,99420.31
2018-05-04T12:12:24.881Z,99429.17
2018-05-04T12:14:52.436Z,99419.27
2018-05-04T12:17:20.065Z,99411.80
2018-05-04T12:19:47.675Z,99410.50
2018-05-04T12:22:15.297Z,99409.50
2018-05-04T12:24:42.917Z,99408.78
2018-05-04T12:27:10.532Z,99405.96
2018-05-04T12:29:38.088Z,99413.28
2018-05-04T12:32:05.674Z,99413.23
2018-05-04T12:34:33.240Z,99397.19
2018-05-04T12:37:00.967Z,99396.39
2018-05-04T12:39:28.521Z,99395.72
2018-05-04T12:41:56.126Z,99398.28
2018-05-04T12:44:23.748Z,99396.97
2018-05-04T12:46:51.320Z,99386.91
2018-05-04T12:49:18.876Z,99386.92
2018-05-04T12:51:46.503Z,99388.14
2018-05-04T12:54:14.124Z,99381.50
2018-05-04T12:56:41.715Z,99388.72
2018-05-04T12:59:09.334Z,99391.70
2018-05-04T13:01:37.037Z,99383.71
2018-05-04T13:04:04.625Z,99390.08
2018-05-04T13:06:32.258Z,99384.67
2018-05-04T13:08:59.825Z,99383.11
2018-05-04T13:11:27.388Z,99386.13
2018-05-04T13:13:55.042Z,99386.89
2018-05-04T13:16:22.661Z,99375.66
2018-05-04T13:18:51.208Z,99378.58
2018-05-04T13:21:18.764Z,99383.34
2018-05-04T13:23:46.393Z,99379.51
2018-05-04T13:26:14.017Z,99377.95
2018-05-04T13:28:41.588Z,99387.46
2018-05-04T13:31:09.143Z,99381.14
2018-05-04T13:33:36.697Z,99375.80
2018-05-04T13:36:04.332Z,99384.58
2018-05-04T13:38:31.909Z,99384.53
2018-05-04T13:40:59.484Z,99383.11
2018-05-04T13:43:27.096Z,99369.61
2018-05-04T13:45:54.657Z,99373.01
2018-05-04T13:48:22.293Z,99376.58
2018-05-04T13:50:49.937Z,99378.06
2018-05-04T13:53:17.628Z,99379.61
2018-05-04T13:55:45.187Z,99382.70
2018-05-04T13:58:12.804Z,99376.46
2018-05-04T14:00:40.429Z,99373.05
2018-05-04T14:03:08.017Z,99379.81
2018-05-04T14:05:35.740Z,99372.69
2018-05-04T14:08:03.297Z,99374.09
2018-05-04T14:10:30.886Z,99371.92
2018-05-04T14:12:58.451Z,99367.77
2018-05-04T14:15:26.052Z,99370.39
2018-05-04T14:17:53.613Z,99373.41
2018-05-04T14:20:21.230Z,99367.48
2018-05-04T14:22:48.789Z,99374.56
2018-05-04T14:25:16.353Z,99370.36
2018-05-04T14:27:43.960Z,99367.34
2018-05-04T14:30:11.571Z,99369.23
2018-05-04T14:32:39.180Z,99374.34
2018-05-04T14:35:06.745Z,99368.60
2018-05-04T14:37:34.370Z,99372.06
2018-05-04T14:40:01.977Z,99369.34
2018-05-04T14:42:29.576Z,99372.47
2018-05-04T14:44:57.129Z,99368.71
2018-05-04T14:47:24.842Z,99369.96
2018-05-04T14:49:52.501Z,99373.19
2018-05-04T14:52:20.057Z,99371.69
2018-05-04T14:54:47.636Z,99362.52
2018-05-04T14:57:15.204Z,99372.66
2018-05-04T14:59:42.825Z,99359.58
2018-05-04T15:02:10.376Z,99360.91
2018-05-04T15:04:38.062Z,99366.34
2018-05-04T15:07:05.681Z,99368.39
2018-05-04T15:09:33.237Z,99366.03
2018-05-04T15:12:00.932Z,99373.19
2018-05-04T15:14:28.389Z,99369.94
2018-05-04T15:16:56.070Z,99370.55
2018-05-04T15:19:23.697Z,99376.94
2018-05-04T15:21:51.304Z,99374.06
2018-05-04T15:24:18.860Z,99374.13
2018-05-04T15:26:46.412Z,99379.02
2018-05-04T15:29:14.000Z,99378.47
2018-05-04T15:31:41.541Z,99381.67
2018-05-04T15:34:09.161Z,99377.93
2018-05-04T15:36:36.716Z,99382.27
2018-05-04T15:39:04.365Z,99387.45
2018-05-04T15:41:31.936Z,99388.77
2018-05-04T15:43:59.556Z,99392.69
2018-05-04T15:46:27.170Z,99390.94
2018-05-04T15:49:00.324Z,99389.50
2018-05-04T15:51:33.462Z,99382.48
2018-05-04T15:54:01.170Z,99392.82
2018-05-04T15:56:28.741Z,99385.69
2018-05-04T15:58:56.321Z,99379.33
2018-05-04T16:01:23.955Z,99386.98
2018-05-04T16:03:51.575Z,99389.84
2018-05-04T16:06:19.160Z,99390.55
2018-05-04T16:08:46.769Z,99390.61
2018-05-04T16:11:14.339Z,99388.24
2018-05-04T16:13:41.951Z,99391.25
2018-05-04T16:16:09.501Z,99402.77
2018-05-04T16:18:37.116Z,99399.96
2018-05-04T16:21:04.751Z,99395.70
2018-05-04T16:23:32.301Z,99395.20
2018-05-04T16:25:59.956Z,99399.87
2018-05-04T16:28:27.593Z,99402.09
2018-05-04T16:30:55.165Z,99401.98
2018-05-04T16:33:22.734Z,99407.14
2018-05-04T16:35:50.312Z,99407.73
2018-05-04T16:38:17.929Z,99408.36
2018-05-04T16:40:45.491Z,99414.48
2018-05-04T16:43:13.109Z,99418.31
2018-05-04T16:45:40.735Z,99414.39
2018-05-04T16:48:14.081Z,99419.86
2018-05-04T16:50:41.673Z,99422.63
2018-05-04T16:53:09.247Z,99432.56
2018-05-04T16:55:36.904Z,99430.81
2018-05-04T16:58:04.682Z,99435.26
2018-05-04T17:00:32.365Z,99438.40
2018-05-04T17:02:59.989Z,99440.13
2018-05-04T17:05:27.557Z,99437.30
2018-05-04T17:07:55.164Z,99441.48
2018-05-04T17:10:22.804Z,99441.95
2018-05-04T17:12:50.425Z,99440.17
2018-05-04T17:15:18.081Z,99442.42
2018-05-04T17:17:45.709Z,99440.78
2018-05-04T17:20:13.264Z,99444.80
2018-05-04T17:22:40.825Z,99448.28
2018-05-04T17:25:08.433Z,99445.98
2018-05-04T17:27:36.039Z,99456.31
2018-05-04T17:30:03.614Z,99458.67
2018-05-04T17:32:31.229Z,99456.80
2018-05-04T17:34:58.792Z,99459.80
2018-05-04T17:37:26.355Z,99452.38
2018-05-04T17:39:53.981Z,99461.31
2018-05-04T17:42:21.642Z,99462.84
2018-05-04T17:44:49.271Z,99459.53
2018-05-04T17:47:16.912Z,99461.88
2018-05-04T17:49:44.428Z,99463.64
2018-05-04T17:52:12.033Z,99464.31
2018-05-04T17:54:39.658Z,99470.45
2018-05-04T17:57:07.210Z,99474.14
2018-05-04T17:59:34.773Z,99472.61
2018-05-04T18:02:02.425Z,99476.11
2018-05-04T18:04:29.984Z,99478.00
2018-05-04T18:06:57.617Z,99478.36
2018-05-04T18:09:25.276Z,99487.72
2018-05-04T18:11:52.881Z,99488.08
2018-05-04T18:14:20.497Z,99493.75
2018-05-04T18:16:48.122Z,99495.89
2018-05-04T18:19:15.744Z,99501.43
2018-05-04T18:21:43.382Z,99508.87
2018-05-04T18:24:11.016Z,99513.59
2018-05-04T18:26:38.592Z,99518.44
2018-05-04T18:29:06.212Z,99522.45
2018-05-04T18:31:33.847Z,99521.59
2018-05-04T18:34:01.466Z,99525.28
2018-05-04T18:36:29.039Z,99526.81
2018-05-04T18:38:56.617Z,99528.56
2018-05-04T18:41:24.180Z,99527.00
2018-05-04T18:43:51.799Z,99537.80
2018-05-04T18:46:19.355Z,99537.45
2018-05-04T18:48:46.931Z,99536.17
2018-05-04T18:51:14.509Z,99541.14
2018-05-04T18:53:42.129Z,99537.19
2018-05-04T18:56:09.721Z,99543.08
2018-05-04T18:58:37.316Z,99539.55
2018-05-04T19:01:04.881Z,99542.31
2018-05-04T19:03:32.509Z,99542.89
2018-05-04T19:06:00.122Z,99546.08
2018-05-04T19:08:27.738Z,99544.67
2018-05-04T19:10:55.360Z,99545.25
2018-05-04T19:13:22.929Z,99545.38
2018-05-04T19:15:50.507Z,99547.57
2018-05-04T19:18:18.083Z,99546.45
2018-05-04T19:20:45.769Z,99548.49
2018-05-04T19:23:13.385Z,99552.98
2018-05-04T19:25:40.961Z,99548.84
2018-05-04T19:28:08.601Z,99543.49
2018-05-04T19:30:36.189Z,99544.16
2018-05-04T19:33:03.812Z,99547.86
2018-05-04T19:35:31.437Z,99543.08
2018-05-04T19:37:58.999Z,99546.90
2018-05-04T19:40:26.630Z,99543.11
2018-05-04T19:42:54.202Z,99549.59
2018-05-04T19:45:21.825Z,99544.41
2018-05-04T19:47:49.449Z,99547.02
2018-05-04T19:50:17.005Z,99544.78
2018-05-04T19:52:44.582Z,99544.37
2018-05-04T19:55:12.198Z,99544.91
2018-05-04T19:57:39.877Z,99541.15
2018-05-04T20:00:07.508Z,99543.84
2018-05-04T20:02:35.064Z,99539.48
2018-05-04T20:05:02.748Z,99542.47
2018-05-04T20:07:30.373Z,99537.63
2018-05-04T20:09:57.936Z,99539.05
2018-05-04T20:12:25.512Z,99535.56
2018-05-04T20:14:53.209Z,99546.02
2018-05-04T20:17:20.783Z,99543.82
2018-05-04T20:19:48.357Z,99548.34
2018-05-04T20:22:15.989Z,99545.89
2018-05-04T20:24:43.595Z,99552.74
2018-05-04T20:27:11.228Z,99548.83
2018-05-04T20:29:38.913Z,99545.18
2018-05-04T20:32:06.479Z,99546.38
2018-05-04T20:34:34.050Z,99548.12
2018-05-04T20:37:01.680Z,99548.59
2018-05-04T20:39:29.318Z,99546.68
2018-05-04T20:41:56.963Z,99552.63
2018-05-04T20:44:24.592Z,99554.30
2018-05-04T20:46:52.227Z,99548.05
2018-05-04T20:49:19.805Z,99551.30
2018-05-04T20:51:47.374Z,99557.28
2018-05-04T20:54:14.976Z,99560.11
2018-05-04T20:56:42.536Z,99559.34
2018-05-04T20:59:10.165Z,99562.58
2018-05-04T21:01:37.721Z,99561.81
2018-05-04T21:04:05.342Z,99559.00
2018-05-04T21:06:32.919Z,99555.38
2018-05-04T21:09:00.480Z,99557.72
2018-05-04T21:11:28.089Z,99558.93
2018-05-04T21:13:55.719Z,99560.17
2018-05-04T21:16:23.413Z,99558.83
2018-05-04T21:18:50.972Z,99554.53
2018-05-04T21:21:18.533Z,99559.86
2018-05-04T21:23:46.157Z,99562.06
2018-05-04T21:26:13.773Z,99566.55
2018-05-04T21:28:41.454Z,99568.99
2018-05-04T21:31:09.134Z,99571.47
2018-05-04T21:33:36.757Z,99572.22
2018-05-04T21:36:04.308Z,99568.97
2018-05-04T21:38:31.915Z,99572.50
2018-05-04T21:40:59.544Z,99570.32
2018-05-04T21:43:27.217Z,99569.65
2018-05-04T21:45:54.786Z,99573.21
2018-05-04T21:48:22.344Z,99572.01
2018-05-04T21:50:49.976Z,99576.52
2018-05-04T21:53:17.532Z,99578.33
2018-05-04T21:55:45.136Z,99571.69
2018-05-04T21:58:12.681Z,99575.13
2018-05-04T22:00:40.244Z,99576.30
2018-05-04T22:03:07.834Z,99578.22
2018-05-04T22:05:35.471Z,99575.95
2018-05-04T22:08:14.530Z,99579.28
2018-05-04T22:10:42.080Z,99570.70
2018-05-04T22:13:09.640Z,99572.39
2018-05-04T22:15:37.296Z,99568.77
2018-05-04T22:18:04.856Z,99570.36
2018-05-04T22:20:32.445Z,99574.20
2018-05-04T22:23:00.070Z,99572.58
2018-05-04T22:25:27.742Z,99574.72
2018-05-04T22:27:55.371Z,99578.11
2018-05-04T22:30:22.960Z,99579.05
2018-05-04T22:32:50.522Z,99576.67
2018-05-04T22:35:18.159Z,99579.23
2018-05-04T22:37:45.791Z,99575.69
2018-05-04T22:40:13.422Z,99574.47
2018-05-04T22:42:41.076Z,99577.78
2018-05-04T22:45:08.674Z,99577.81
2018-05-04T22:47:36.233Z,99572.41
2018-05-04T22:50:03.920Z,99572.81
2018-05-04T22:52:31.557Z,99575.78
2018-05-04T22:54:59.181Z,99579.20
2018-05-04T22:57:26.736Z,99569.28
2018-05-04T22:59:54.408Z,99572.25
2018-05-04T23:02:21.986Z,99570.86
2018-05-04T23:04:49.550Z,99566.81
2018-05-04T23:07:17.123Z,99572.03
2018-05-04T23:09:44.745Z,99565.52
2018-05-04T23:12:12.312Z,99565.55
2018-05-04T23:14:39.876Z,99569.39
2018-05-04T23:17:07.498Z,99561.33
2018-05-04T23:19:35.060Z,99569.39
2018-05-04T23:22:02.631Z,99566.06
2018-05-04T23:24:30.204Z,99567.56
2018-05-04T23:26:57.825Z,99568.88
2018-05-04T23:29:25.378Z,99578.11
2018-05-04T23:31:53.007Z,99569.06
2018-05-04T23:34:20.645Z,99577.42
2018-05-04T23:36:48.222Z,99577.31
2018-05-04T23:39:15.799Z,99577.67
2018-05-04T23:41:43.364Z,99580.94
2018-05-04T23:44:10.920Z,99587.27
2018-05-04T23:46:38.550Z,99587.52
2018-05-04T23:49:06.115Z,99582.45
2018-05-04T23:51:33.728Z,99590.81
2018-05-04T23:54:01.284Z,99591.75
2018-05-04T23:56:28.905Z,99585.40
2018-05-04T23:58:56.477Z,99581.91
